Terminal Aerodrome Forecast
Issued by NWS

Home | Current Version | Previous Version | Text Only | Print | Product List | Glossary On
Versions: 1 2 3 4 5 6 7 8 9 10 11 12 13 14 15 16 17 18 19 20 21 22
216
FTUS43 KPAH 031725
TAFCGI
TAF
KCGI 031725Z 0318/0418 11008KT P6SM FEW100 BKN200
     FM040000 07004KT P6SM OVC070
      TEMPO 0402/0406 -RA
     FM040600 07005KT 4SM -RA BR SCT010 OVC030=

USA.gov is the U.S. government's official web portal to all federal, state and local government web resources and services.